Time;durP1;ratioP1;P1;durP2;ratioP2;P2;SDS_P1;SDS_P2;PMS_P1;PMS_P2;Temp;Humidity;BMP_temperature;BMP_pressure;BME280_temperature;BME280_humidity;BME280_pressure;Samples;Min_cycle;Max_cycle;Signal;HPM_P1;HPM_P2
2022/04/18 00:00:51;;;;;;;;;;;5.70;99.40;;;;;;5076518;28;20291;-60
2022/04/18 00:03:18;;;;;;;;;;;5.70;99.50;;;;;;5074523;28;19925;-60
2022/04/18 00:05:44;;;;;;;;;;;5.70;99.80;;;;;;5076458;28;20356;-59
2022/04/18 00:08:11;;;;;;;;;;;5.60;99.90;;;;;;5077206;28;19970;-60
2022/04/18 00:10:38;;;;;;;;;;;5.60;99.90;;;;;;5075561;28;19929;-60
2022/04/18 00:13:05;;;;;;;;;;;5.50;99.90;;;;;;5065506;28;19932;-60
2022/04/18 00:15:32;;;;;;;;;;;5.40;99.90;;;;;;5073862;28;19925;-60
2022/04/18 00:18:00;;;;;;;;;;;5.30;99.90;;;;;;5067442;28;19933;-60
2022/04/18 00:20:26;;;;;;;;;;;5.40;99.90;;;;;;5069837;28;19970;-59
2022/04/18 00:22:53;;;;;;;;;;;5.40;99.90;;;;;;5071629;28;19925;-59
2022/04/18 00:25:20;;;;;;;;;;;5.30;99.90;;;;;;5066339;28;19985;-60
2022/04/18 00:27:47;;;;;;;;;;;5.30;99.90;;;;;;5069366;28;19986;-59
2022/04/18 00:30:13;;;;;;;;;;;5.20;99.90;;;;;;5056536;28;19925;-60
2022/04/18 00:32:40;;;;;;;;;;;5.30;99.90;;;;;;5057214;28;20001;-59
2022/04/18 00:35:09;;;;;;;;;;;5.20;99.90;;;;;;5072471;28;19978;-58
2022/04/18 00:37:39;;;;;;;;;;;5.20;99.90;;;;;;5069821;28;20402;-59
2022/04/18 00:40:07;;;;;;;;;;;5.20;99.90;;;;;;5068857;28;20259;-59
2022/04/18 00:42:34;;;;;;;;;;;5.20;99.90;;;;;;5069751;28;19931;-59
2022/04/18 00:45:01;;;;;;;;;;;5.20;99.90;;;;;;5064940;28;19925;-59
2022/04/18 00:47:28;;;;;;;;;;;5.20;99.90;;;;;;5073377;28;20440;-59
2022/04/18 00:49:55;;;;;;;;;;;5.20;99.90;;;;;;5076554;28;20016;-60
2022/04/18 00:52:23;;;;;;;;;;;5.10;99.90;;;;;;5073245;28;20444;-59
2022/04/18 00:54:51;;;;;;;;;;;5.10;99.90;;;;;;5072689;28;19924;-61
2022/04/18 00:57:18;;;;;;;;;;;5.10;99.90;;;;;;5073351;28;20351;-59
2022/04/18 00:59:45;;;;;;;;;;;5.10;99.90;;;;;;5071707;28;19924;-61
2022/04/18 01:02:13;;;;;;;;;;;5.10;99.90;;;;;;5071253;28;19924;-59
2022/04/18 01:04:40;;;;;;;;;;;5.10;99.90;;;;;;5073293;28;19928;-59
2022/04/18 01:07:06;;;;;;;;;;;5.10;99.90;;;;;;5057265;28;20387;-62
2022/04/18 01:09:35;;;;;;;;;;;5.00;99.90;;;;;;5070064;28;19978;-59
2022/04/18 01:12:01;;;;;;;;;;;4.90;99.90;;;;;;5065005;28;19928;-59
2022/04/18 01:14:28;;;;;;;;;;;4.90;99.90;;;;;;5071256;28;20390;-58
2022/04/18 01:16:55;;;;;;;;;;;4.80;99.90;;;;;;5068882;28;19986;-60
2022/04/18 01:19:22;;;;;;;;;;;4.70;99.90;;;;;;5072910;28;19924;-59
2022/04/18 01:21:50;;;;;;;;;;;4.70;99.90;;;;;;5072690;28;19985;-59
2022/04/18 01:29:45;;;;;;;;;;;4.60;99.90;;;;;;5071548;28;19927;-59
2022/04/18 01:32:11;;;;;;;;;;;4.60;99.90;;;;;;5065872;28;19994;-59
2022/04/18 01:34:38;;;;;;;;;;;4.50;99.90;;;;;;5071536;28;19928;-59
2022/04/18 01:37:06;;;;;;;;;;;4.40;99.90;;;;;;5071042;28;19978;-59
2022/04/18 01:39:33;;;;;;;;;;;4.40;99.90;;;;;;5063555;28;20411;-58
2022/04/18 01:42:00;;;;;;;;;;;4.30;99.90;;;;;;5064868;28;19924;-59
2022/04/18 01:44:28;;;;;;;;;;;4.30;99.90;;;;;;5076953;28;20252;-59
2022/04/18 01:46:54;;;;;;;;;;;4.30;99.90;;;;;;5075897;28;19932;-59
2022/04/18 01:49:22;;;;;;;;;;;4.20;99.90;;;;;;5073056;28;19929;-58
2022/04/18 01:51:49;;;;;;;;;;;4.10;99.90;;;;;;5071543;28;19924;-59
2022/04/18 01:54:17;;;;;;;;;;;4.20;99.90;;;;;;5074567;28;20393;-58
2022/04/18 01:56:44;;;;;;;;;;;4.30;99.90;;;;;;5070762;28;21792;-60
2022/04/18 01:59:12;;;;;;;;;;;4.40;99.90;;;;;;5067375;28;19925;-59
2022/04/18 02:01:38;;;;;;;;;;;4.70;99.90;;;;;;5075574;28;20000;-59
2022/04/18 02:04:05;;;;;;;;;;;4.70;99.90;;;;;;5075713;28;19930;-60
2022/04/18 02:06:34;;;;;;;;;;;4.50;99.90;;;;;;5074860;28;19932;-60
2022/04/18 02:09:01;;;;;;;;;;;4.20;99.90;;;;;;5071601;28;19924;-59
2022/04/18 02:11:30;;;;;;;;;;;4.20;99.90;;;;;;5074674;28;20380;-60
2022/04/18 02:13:57;;;;;;;;;;;4.10;99.90;;;;;;5069027;28;19924;-59
2022/04/18 02:16:23;;;;;;;;;;;4.10;99.90;;;;;;5078139;28;20344;-59
2022/04/18 02:18:50;;;;;;;;;;;4.00;99.90;;;;;;5074953;28;19946;-61
2022/04/18 02:21:19;;;;;;;;;;;4.00;99.90;;;;;;5067597;28;19925;-60
2022/04/18 02:23:46;;;;;;;;;;;4.00;99.90;;;;;;5064823;28;20395;-59
2022/04/18 02:26:12;;;;;;;;;;;3.90;99.90;;;;;;5074838;28;19924;-60
2022/04/18 02:28:41;;;;;;;;;;;3.90;99.90;;;;;;5072207;28;19925;-59
2022/04/18 02:31:08;;;;;;;;;;;3.80;99.90;;;;;;5069564;28;19936;-59
2022/04/18 02:33:34;;;;;;;;;;;3.80;99.90;;;;;;5055110;28;19955;-63
2022/04/18 02:36:02;;;;;;;;;;;3.70;99.90;;;;;;5055403;28;19929;-59
2022/04/18 02:38:29;;;;;;;;;;;3.60;99.90;;;;;;5062717;28;19937;-61
2022/04/18 02:40:55;;;;;;;;;;;3.70;99.90;;;;;;5073443;28;19978;-60
2022/04/18 02:43:22;;;;;;;;;;;3.70;99.90;;;;;;5073630;28;19929;-59
2022/04/18 02:45:50;;;;;;;;;;;3.70;99.90;;;;;;5071450;28;19925;-59
2022/04/18 02:48:17;;;;;;;;;;;3.70;99.90;;;;;;5074419;28;20007;-59
2022/04/18 02:50:44;;;;;;;;;;;3.60;99.90;;;;;;5076751;28;19978;-59
2022/04/18 02:53:10;;;;;;;;;;;3.70;99.90;;;;;;5074714;28;19990;-59
2022/04/18 02:55:37;;;;;;;;;;;3.70;99.90;;;;;;5060124;28;19929;-59
2022/04/18 02:58:04;;;;;;;;;;;3.70;99.90;;;;;;5055438;28;20353;-58
2022/04/18 03:00:31;;;;;;;;;;;3.70;99.90;;;;;;5064900;28;19985;-59
2022/04/18 03:02:59;;;;;;;;;;;3.60;99.90;;;;;;5055924;28;19925;-59
2022/04/18 03:05:25;;;;;;;;;;;3.70;99.90;;;;;;5068427;28;19990;-59
2022/04/18 03:07:52;;;;;;;;;;;3.60;99.90;;;;;;5071480;28;20340;-58
2022/04/18 03:11:02;;;;;;;;;;;3.50;99.90;;;;;;5070569;28;19978;-58
2022/04/18 03:13:06;;;;;;;;;;;3.40;99.90;;;;;;5073627;28;19974;-59
2022/04/18 03:15:33;;;;;;;;;;;3.50;99.90;;;;;;5074380;28;19978;-58
2022/04/18 03:18:01;;;;;;;;;;;3.40;99.90;;;;;;5074068;28;19940;-60
2022/04/18 03:20:27;;;;;;;;;;;3.40;99.90;;;;;;5069648;28;19979;-60
2022/04/18 03:22:54;;;;;;;;;;;3.40;99.90;;;;;;5067963;28;19924;-58
2022/04/18 03:25:21;;;;;;;;;;;3.40;99.90;;;;;;5071982;28;19970;-62
2022/04/18 03:27:48;;;;;;;;;;;3.30;99.90;;;;;;5073694;28;20336;-59
2022/04/18 03:30:15;;;;;;;;;;;3.30;99.90;;;;;;5073967;28;19924;-59
2022/04/18 03:32:41;;;;;;;;;;;3.40;99.90;;;;;;5070207;28;19924;-59
2022/04/18 03:35:10;;;;;;;;;;;3.30;99.90;;;;;;5071655;28;20348;-59
2022/04/18 03:40:21;;;;;;;;;;;3.30;99.90;;;;;;5070186;28;19927;-59
2022/04/18 03:42:48;;;;;;;;;;;3.40;99.90;;;;;;5072315;28;19932;-59
2022/04/18 03:45:15;;;;;;;;;;;3.30;99.90;;;;;;5074260;28;19924;-60
2022/04/18 03:47:41;;;;;;;;;;;3.30;99.90;;;;;;5074271;28;20386;-59
2022/04/18 03:50:10;;;;;;;;;;;3.40;99.90;;;;;;5073135;28;19933;-61
2022/04/18 03:52:37;;;;;;;;;;;3.30;99.90;;;;;;5067692;28;19982;-60
2022/04/18 03:55:04;;;;;;;;;;;3.40;99.90;;;;;;5072767;28;20425;-59
2022/04/18 03:57:31;;;;;;;;;;;3.30;99.90;;;;;;5071054;28;19924;-59
2022/04/18 03:59:58;;;;;;;;;;;3.30;99.90;;;;;;5071708;28;19982;-60
2022/04/18 04:02:24;;;;;;;;;;;3.20;99.90;;;;;;5072085;28;20024;-61
2022/04/18 04:04:51;;;;;;;;;;;3.30;99.90;;;;;;5065649;28;19924;-59
2022/04/18 04:07:19;;;;;;;;;;;3.30;99.90;;;;;;5068847;28;20348;-59
2022/04/18 04:09:46;;;;;;;;;;;3.30;99.90;;;;;;5069561;28;19924;-60
2022/04/18 04:12:13;;;;;;;;;;;3.20;99.90;;;;;;5071000;28;19978;-60
2022/04/18 04:14:40;;;;;;;;;;;3.10;99.90;;;;;;5071947;28;19934;-59
2022/04/18 04:17:06;;;;;;;;;;;3.20;99.90;;;;;;5072981;28;19924;-59
2022/04/18 04:19:33;;;;;;;;;;;3.20;99.90;;;;;;5076191;28;19924;-60
2022/04/18 04:22:00;;;;;;;;;;;3.10;99.90;;;;;;5072504;28;20552;-58
2022/04/18 04:24:28;;;;;;;;;;;3.00;99.90;;;;;;5072848;28;19951;-60
2022/04/18 04:26:55;;;;;;;;;;;3.00;99.90;;;;;;5071610;28;19958;-59
2022/04/18 04:29:21;;;;;;;;;;;3.10;99.90;;;;;;5070973;28;19931;-60
2022/04/18 04:31:48;;;;;;;;;;;3.10;99.90;;;;;;5067388;28;20028;-59
2022/04/18 04:34:16;;;;;;;;;;;3.20;99.90;;;;;;5071070;28;19925;-59
2022/04/18 04:36:43;;;;;;;;;;;3.20;99.90;;;;;;5069965;28;20000;-59
2022/04/18 04:39:10;;;;;;;;;;;3.20;99.90;;;;;;5072310;28;19986;-60
2022/04/18 04:41:38;;;;;;;;;;;3.30;99.90;;;;;;5066289;28;19924;-60
2022/04/18 04:44:05;;;;;;;;;;;3.30;99.90;;;;;;5070527;28;20024;-59
2022/04/18 04:46:32;;;;;;;;;;;3.30;99.90;;;;;;5070607;28;20053;-59
2022/04/18 04:48:59;;;;;;;;;;;3.30;99.90;;;;;;5071483;28;19928;-60
2022/04/18 04:51:28;;;;;;;;;;;3.40;99.90;;;;;;5066682;28;19968;-60
2022/04/18 04:53:55;;;;;;;;;;;3.50;99.90;;;;;;5069819;28;20058;-60
2022/04/18 04:56:24;;;;;;;;;;;3.50;99.90;;;;;;5071977;28;19924;-61
2022/04/18 04:58:53;;;;;;;;;;;3.60;99.90;;;;;;5071582;28;19925;-60
2022/04/18 05:01:20;;;;;;;;;;;3.60;99.90;;;;;;5071880;28;20396;-59
2022/04/18 05:03:47;;;;;;;;;;;3.70;99.90;;;;;;5072130;28;19978;-60
2022/04/18 05:06:14;;;;;;;;;;;3.70;99.90;;;;;;5071525;28;19985;-61
2022/04/18 05:08:41;;;;;;;;;;;3.80;99.90;;;;;;5065816;28;20032;-59
2022/04/18 05:11:07;;;;;;;;;;;3.90;99.90;;;;;;5064017;28;19925;-59
2022/04/18 05:13:34;;;;;;;;;;;4.00;99.90;;;;;;5066720;28;19925;-60
2022/04/18 05:16:02;;;;;;;;;;;4.10;99.90;;;;;;5064213;28;19925;-59
2022/04/18 05:18:29;;;;;;;;;;;4.20;99.90;;;;;;5064171;28;20384;-59
2022/04/18 05:20:57;;;;;;;;;;;4.30;99.90;;;;;;5072286;28;19925;-59
2022/04/18 05:23:23;;;;;;;;;;;4.50;99.90;;;;;;5064056;28;19952;-59
2022/04/18 05:25:50;;;;;;;;;;;4.80;99.90;;;;;;5054616;28;19948;-60
2022/04/18 05:28:17;;;;;;;;;;;6.40;99.90;;;;;;5062124;28;19924;-60
2022/04/18 05:30:44;;;;;;;;;;;9.20;99.90;;;;;;5070013;28;20293;-60
2022/04/18 05:33:12;;;;;;;;;;;12.20;99.90;;;;;;5058537;28;19925;-62
2022/04/18 05:35:38;;;;;;;;;;;14.90;96.40;;;;;;5050781;28;19991;-63
2022/04/18 05:38:05;;;;;;;;;;;16.90;90.60;;;;;;5067290;28;19990;-60
2022/04/18 05:40:32;;;;;;;;;;;18.20;83.90;;;;;;5051956;28;19925;-60
2022/04/18 05:43:01;;;;;;;;;;;19.50;76.20;;;;;;5060988;28;19928;-61
2022/04/18 05:45:28;;;;;;;;;;;20.00;71.90;;;;;;5067386;28;19925;-60
2022/04/18 05:47:55;;;;;;;;;;;20.50;69.00;;;;;;5065214;28;19924;-61
2022/04/18 05:50:23;;;;;;;;;;;21.30;66.30;;;;;;5060672;28;19990;-62
2022/04/18 05:52:50;;;;;;;;;;;21.50;63.90;;;;;;5068890;28;19929;-61
2022/04/18 05:55:16;;;;;;;;;;;21.90;62.50;;;;;;5069017;28;20041;-60
2022/04/18 05:57:43;;;;;;;;;;;21.50;61.80;;;;;;5070114;28;19924;-61
2022/04/18 06:00:10;;;;;;;;;;;21.80;61.40;;;;;;5057993;28;20341;-61
2022/04/18 06:02:37;;;;;;;;;;;21.60;60.20;;;;;;5062109;28;19924;-60
2022/04/18 06:05:04;;;;;;;;;;;21.40;59.80;;;;;;5069478;28;19940;-61
2022/04/18 06:07:32;;;;;;;;;;;21.50;59.60;;;;;;5065756;28;19924;-60
2022/04/18 06:09:59;;;;;;;;;;;21.50;59.50;;;;;;5067970;28;20130;-61
2022/04/18 06:12:26;;;;;;;;;;;21.50;59.80;;;;;;5066508;28;19947;-61
2022/04/18 06:14:53;;;;;;;;;;;22.20;59.60;;;;;;5066850;28;19932;-62
2022/04/18 06:17:20;;;;;;;;;;;23.00;57.90;;;;;;5068809;28;20435;-63
2022/04/18 06:19:47;;;;;;;;;;;22.90;57.80;;;;;;5062624;28;20448;-60
2022/04/18 06:22:14;;;;;;;;;;;22.50;58.00;;;;;;5066148;28;19970;-62
2022/04/18 06:24:42;;;;;;;;;;;21.80;59.00;;;;;;5069619;28;19944;-61
2022/04/18 06:27:08;;;;;;;;;;;22.20;58.80;;;;;;5069909;28;20045;-61
2022/04/18 06:29:37;;;;;;;;;;;23.50;58.20;;;;;;5070303;28;19925;-61
2022/04/18 06:32:04;;;;;;;;;;;23.80;57.30;;;;;;5065314;28;20548;-60
2022/04/18 06:34:30;;;;;;;;;;;24.00;57.10;;;;;;5073851;28;19924;-61
2022/04/18 06:36:57;;;;;;;;;;;24.40;57.30;;;;;;5073293;28;19994;-60
2022/04/18 06:39:24;;;;;;;;;;;24.90;56.30;;;;;;5071469;28;19924;-62
2022/04/18 06:41:52;;;;;;;;;;;24.90;54.90;;;;;;5073444;28;19925;-61
2022/04/18 06:44:19;;;;;;;;;;;24.50;55.80;;;;;;5068020;28;19993;-61
2022/04/18 06:46:46;;;;;;;;;;;24.80;56.10;;;;;;5071175;28;20413;-62
2022/04/18 06:49:12;;;;;;;;;;;23.80;56.90;;;;;;5072293;28;19924;-63
2022/04/18 06:51:39;;;;;;;;;;;24.30;57.30;;;;;;5072715;28;19982;-62
2022/04/18 06:54:06;;;;;;;;;;;25.30;54.20;;;;;;5067933;28;19993;-62
2022/04/18 06:59:18;;;;;;;;;;;26.20;53.40;;;;;;5066166;28;19932;-65
2022/04/18 07:01:46;;;;;;;;;;;26.60;54.00;;;;;;5072916;28;20027;-62
2022/04/18 07:04:13;;;;;;;;;;;27.50;53.30;;;;;;5066976;28;19929;-65
2022/04/18 07:06:40;;;;;;;;;;;27.90;53.40;;;;;;5063790;28;19924;-62
2022/04/18 07:09:07;;;;;;;;;;;28.50;51.40;;;;;;5073660;28;19924;-62
2022/04/18 07:11:35;;;;;;;;;;;27.70;51.60;;;;;;5073390;28;19978;-63
2022/04/18 07:14:01;;;;;;;;;;;26.50;53.40;;;;;;5072094;28;19924;-63
2022/04/18 07:16:30;;;;;;;;;;;27.30;52.40;;;;;;5059495;28;19928;-63
2022/04/18 07:18:57;;;;;;;;;;;26.50;51.60;;;;;;5053223;28;19925;-63
2022/04/18 07:21:24;;;;;;;;;;;27.20;51.50;;;;;;5054756;28;19931;-63
2022/04/18 07:23:51;;;;;;;;;;;27.60;51.70;;;;;;5053300;28;20331;-64
2022/04/18 07:26:18;;;;;;;;;;;28.10;51.60;;;;;;5066441;28;20322;-64
2022/04/18 07:28:44;;;;;;;;;;;26.40;51.40;;;;;;5071475;28;19924;-63
2022/04/18 07:31:11;;;;;;;;;;;26.80;51.90;;;;;;5067081;28;19955;-63
2022/04/18 07:33:39;;;;;;;;;;;27.10;51.20;;;;;;5069065;28;19935;-63
2022/04/18 07:36:06;;;;;;;;;;;27.00;51.90;;;;;;5065896;28;19974;-63
2022/04/18 07:38:51;;;;;;;;;;;26.20;51.70;;;;;;5072990;28;20554;-64
2022/04/18 07:41:19;;;;;;;;;;;27.20;51.90;;;;;;5070655;28;20275;-62
2022/04/18 07:43:46;;;;;;;;;;;27.40;52.50;;;;;;5063184;28;19931;-64
2022/04/18 07:46:15;;;;;;;;;;;28.80;50.60;;;;;;5071357;28;20015;-62
2022/04/18 07:48:43;;;;;;;;;;;28.80;49.20;;;;;;5072573;28;20417;-63
2022/04/18 07:53:54;;;;;;;;;;;28.50;49.20;;;;;;5072047;28;19970;-63
2022/04/18 07:56:21;;;;;;;;;;;29.20;48.60;;;;;;5072625;28;19925;-62
2022/04/18 07:58:48;;;;;;;;;;;28.40;47.60;;;;;;5061813;28;19929;-64
2022/04/18 08:01:15;;;;;;;;;;;28.00;48.90;;;;;;5070136;28;20463;-63
2022/04/18 08:03:43;;;;;;;;;;;28.60;47.90;;;;;;5070425;28;20029;-63
2022/04/18 08:06:09;;;;;;;;;;;27.80;49.80;;;;;;5069106;28;19925;-64
2022/04/18 08:08:36;;;;;;;;;;;27.60;50.10;;;;;;5052555;28;20453;-64
2022/04/18 08:11:03;;;;;;;;;;;28.30;49.60;;;;;;5052174;28;19978;-62
2022/04/18 08:13:30;;;;;;;;;;;29.70;47.80;;;;;;5052206;28;20326;-64
2022/04/18 08:15:57;;;;;;;;;;;28.70;49.70;;;;;;5052083;28;19978;-63
2022/04/18 08:18:25;;;;;;;;;;;28.40;49.60;;;;;;5052492;28;20058;-64
2022/04/18 08:20:53;;;;;;;;;;;27.20;52.00;;;;;;5052126;28;20379;-64
2022/04/18 08:23:20;;;;;;;;;;;26.10;52.50;;;;;;5063559;28;20467;-64
2022/04/18 08:25:47;;;;;;;;;;;26.10;53.00;;;;;;5051969;28;19979;-64
2022/04/18 08:28:14;;;;;;;;;;;25.40;53.60;;;;;;5052097;28;19925;-63
2022/04/18 08:30:41;;;;;;;;;;;25.90;53.90;;;;;;5056698;28;19949;-63
2022/04/18 08:33:08;;;;;;;;;;;24.00;56.50;;;;;;5084188;22;19977;-49
2022/04/18 08:35:35;;;;;;;;;;;23.50;57.20;;;;;;5072527;28;20039;-49
2022/04/18 08:38:03;;;;;;;;;;;23.60;56.50;;;;;;5071817;28;20451;-50
2022/04/18 08:40:30;;;;;;;;;;;22.10;59.90;;;;;;5071703;28;19989;-50
2022/04/18 08:42:57;;;;;;;;;;;22.70;59.50;;;;;;5067659;28;20352;-49
2022/04/18 08:45:25;;;;;;;;;;;23.00;59.50;;;;;;5068704;28;19993;-49
2022/04/18 08:53:24;;;;;;;;;;;22.70;58.50;;;;;;5068315;28;20006;-50
2022/04/18 08:55:51;;;;;;;;;;;24.00;56.50;;;;;;5071092;28;19924;-48
2022/04/18 08:58:18;;;;;;;;;;;24.20;55.60;;;;;;5070415;28;19939;-49
2022/04/18 09:00:45;;;;;;;;;;;22.80;57.50;;;;;;5071052;28;19931;-49
2022/04/18 09:03:12;;;;;;;;;;;24.70;56.30;;;;;;5070717;28;19928;-50
2022/04/18 09:05:39;;;;;;;;;;;25.20;55.80;;;;;;5071321;28;19936;-50
2022/04/18 09:08:07;;;;;;;;;;;25.00;58.60;;;;;;5071505;28;19932;-49
2022/04/18 09:10:35;;;;;;;;;;;25.00;56.90;;;;;;5067236;28;19933;-49
2022/04/18 09:13:03;;;;;;;;;;;24.50;55.80;;;;;;5066490;28;19924;-49
2022/04/18 09:15:30;;;;;;;;;;;24.00;55.40;;;;;;5069836;28;19994;-50
2022/04/18 09:18:07;;;;;;;;;;;24.50;55.50;;;;;;5071673;28;19928;-51
2022/04/18 09:20:40;;;;;;;;;;;25.40;55.10;;;;;;5072281;28;20368;-49
2022/04/18 09:23:19;;;;;;;;;;;24.40;55.20;;;;;;5066735;28;20024;-49
2022/04/18 09:25:48;;;;;;;;;;;24.60;56.30;;;;;;5063552;28;19978;-50
2022/04/18 09:28:14;;;;;;;;;;;23.50;55.70;;;;;;5071889;28;19925;-48
2022/04/18 09:30:42;;;;;;;;;;;24.40;55.10;;;;;;5068729;28;19931;-48
2022/04/18 09:33:09;;;;;;;;;;;23.70;56.20;;;;;;5071369;28;19925;-49
2022/04/18 09:35:36;;;;;;;;;;;23.00;57.90;;;;;;5068899;28;20348;-50
2022/04/18 09:38:05;;;;;;;;;;;24.00;55.90;;;;;;5071635;28;19970;-50
2022/04/18 09:40:32;;;;;;;;;;;25.10;55.00;;;;;;5071661;28;20023;-50
2022/04/18 09:43:01;;;;;;;;;;;24.20;56.50;;;;;;5070652;28;19924;-50
2022/04/18 09:45:27;;;;;;;;;;;23.00;58.10;;;;;;5068523;28;19933;-48
2022/04/18 09:47:55;;;;;;;;;;;23.70;56.50;;;;;;5070105;28;19924;-49
2022/04/18 09:53:20;;;;;;;;;;;23.40;55.50;;;;;;5033017;28;20390;-49
2022/04/18 09:55:47;;;;;;;;;;;23.50;55.90;;;;;;5067602;28;19928;-48
2022/04/18 09:58:15;;;;;;;;;;;23.00;55.10;;;;;;5070447;28;19924;-48
2022/04/18 10:00:42;;;;;;;;;;;22.80;55.70;;;;;;5069784;28;19925;-48
2022/04/18 10:03:09;;;;;;;;;;;22.30;56.50;;;;;;5070823;28;19924;-49
2022/04/18 10:05:36;;;;;;;;;;;22.40;56.20;;;;;;5074403;28;19924;-49
2022/04/18 10:08:04;;;;;;;;;;;22.50;57.20;;;;;;5073889;28;19938;-49
2022/04/18 10:10:32;;;;;;;;;;;22.30;56.70;;;;;;5074728;28;20318;-50
2022/04/18 10:12:59;;;;;;;;;;;21.60;57.40;;;;;;5072504;28;19925;-49
2022/04/18 10:15:28;;;;;;;;;;;21.80;58.70;;;;;;5074023;28;19925;-48
2022/04/18 10:17:56;;;;;;;;;;;22.50;57.30;;;;;;5073881;28;19925;-47
2022/04/18 10:20:33;;;;;;;;;;;23.20;56.80;;;;;;5067517;28;19958;-49
2022/04/18 10:23:10;;;;;;;;;;;23.70;54.50;;;;;;5060973;28;20694;-48
2022/04/18 10:25:58;;;;;;;;;;;23.80;56.70;;;;;;5072835;28;19954;-49
2022/04/18 10:28:27;;;;;;;;;;;23.30;55.60;;;;;;5060458;28;20011;-49
2022/04/18 10:30:57;;;;;;;;;;;23.70;55.10;;;;;;5073589;28;19925;-48
2022/04/18 10:33:24;;;;;;;;;;;23.60;55.90;;;;;;5071912;28;19924;-48
2022/04/18 10:35:56;;;;;;;;;;;23.60;54.40;;;;;;5065223;28;19925;-49
2022/04/18 10:38:24;;;;;;;;;;;23.40;54.40;;;;;;5070761;28;19928;-48
2022/04/18 10:40:51;;;;;;;;;;;24.30;56.00;;;;;;5068608;28;19924;-49
2022/04/18 10:43:18;;;;;;;;;;;24.80;53.90;;;;;;5071792;28;19924;-49
2022/04/18 10:45:45;;;;;;;;;;;24.50;53.40;;;;;;5074305;28;20301;-48
2022/04/18 10:48:13;;;;;;;;;;;23.20;55.90;;;;;;5074877;28;19925;-48
2022/04/18 10:50:42;;;;;;;;;;;21.50;55.60;;;;;;5073162;28;20408;-49
2022/04/18 10:53:09;;;;;;;;;;;20.30;58.30;;;;;;5073449;28;19928;-49
2022/04/18 10:55:36;;;;;;;;;;;19.80;58.30;;;;;;5072819;28;19925;-49
2022/04/18 10:58:10;;;;;;;;;;;18.80;61.60;;;;;;5073953;28;20459;-47
2022/04/18 11:00:47;;;;;;;;;;;18.30;64.70;;;;;;5071099;28;19924;-48
2022/04/18 11:03:35;;;;;;;;;;;17.80;64.00;;;;;;5064611;28;19979;-47
2022/04/18 11:06:02;;;;;;;;;;;17.60;63.50;;;;;;5065341;28;19925;-48
2022/04/18 11:08:30;;;;;;;;;;;17.70;64.10;;;;;;5068894;28;19937;-48
2022/04/18 11:11:03;;;;;;;;;;;17.80;66.50;;;;;;5069701;28;20378;-49
2022/04/18 11:13:31;;;;;;;;;;;17.70;64.10;;;;;;5071095;28;20479;-49
2022/04/18 11:16:03;;;;;;;;;;;17.40;65.50;;;;;;5072091;28;19924;-48
2022/04/18 11:18:33;;;;;;;;;;;17.30;63.30;;;;;;5073163;28;19977;-48
2022/04/18 11:21:00;;;;;;;;;;;17.10;67.50;;;;;;5067519;28;19947;-47
2022/04/18 11:23:27;;;;;;;;;;;17.00;65.50;;;;;;5067480;28;19942;-48
2022/04/18 11:25:55;;;;;;;;;;;17.30;69.10;;;;;;5073058;28;19932;-48
2022/04/18 11:28:23;;;;;;;;;;;17.80;68.30;;;;;;5068188;28;19929;-48
2022/04/18 11:30:50;;;;;;;;;;;17.80;67.50;;;;;;5071390;28;19970;-48
2022/04/18 11:33:17;;;;;;;;;;;17.90;65.80;;;;;;5071381;28;19929;-48
2022/04/18 11:35:46;;;;;;;;;;;17.60;64.20;;;;;;5069324;28;20020;-47
2022/04/18 11:38:13;;;;;;;;;;;17.60;65.40;;;;;;5067090;28;20641;-48
2022/04/18 11:40:40;;;;;;;;;;;17.70;66.00;;;;;;5063527;28;19970;-48
2022/04/18 11:43:11;;;;;;;;;;;17.60;68.30;;;;;;5060914;28;19925;-48
2022/04/18 11:45:38;;;;;;;;;;;17.60;67.90;;;;;;5062633;28;19932;-49
2022/04/18 11:48:04;;;;;;;;;;;17.60;68.90;;;;;;5064038;28;20080;-47
2022/04/18 11:50:36;;;;;;;;;;;17.20;67.60;;;;;;5065463;28;19932;-47
2022/04/18 11:53:06;;;;;;;;;;;17.80;67.80;;;;;;5065137;28;19925;-48
2022/04/18 11:55:33;;;;;;;;;;;17.70;66.90;;;;;;5071942;28;19924;-50
2022/04/18 11:58:00;;;;;;;;;;;17.90;66.00;;;;;;5072096;28;20390;-50
2022/04/18 12:08:53;;;;;;;;;;;17.70;65.80;;;;;;5070631;28;20012;-49
2022/04/18 12:11:19;;;;;;;;;;;17.70;68.60;;;;;;5062901;28;19943;-48
2022/04/18 12:13:47;;;;;;;;;;;17.80;68.80;;;;;;5062507;28;20432;-48
2022/04/18 12:16:17;;;;;;;;;;;17.90;67.50;;;;;;5063223;28;19982;-48
2022/04/18 12:18:44;;;;;;;;;;;17.50;66.70;;;;;;5064531;28;19978;-49
2022/04/18 12:21:12;;;;;;;;;;;17.70;71.00;;;;;;5069173;28;19982;-51
2022/04/18 12:23:39;;;;;;;;;;;18.00;67.80;;;;;;5061342;28;19989;-49
2022/04/18 12:26:10;;;;;;;;;;;18.00;65.60;;;;;;5062270;28;19924;-48
2022/04/18 12:28:37;;;;;;;;;;;18.10;63.40;;;;;;5062998;28;19924;-48
2022/04/18 12:31:07;;;;;;;;;;;17.80;65.90;;;;;;5063249;28;19940;-52
2022/04/18 12:33:34;;;;;;;;;;;17.90;70.60;;;;;;5062571;28;20001;-50
2022/04/18 12:36:01;;;;;;;;;;;17.50;69.40;;;;;;5062350;28;19925;-49
2022/04/18 12:38:31;;;;;;;;;;;17.70;70.20;;;;;;5063484;28;19985;-52
2022/04/18 12:40:58;;;;;;;;;;;17.80;68.30;;;;;;5061863;28;19993;-52
2022/04/18 12:43:28;;;;;;;;;;;17.80;68.70;;;;;;5062697;28;20428;-50
2022/04/18 12:45:57;;;;;;;;;;;17.30;63.50;;;;;;5061943;28;20946;-51
2022/04/18 12:48:24;;;;;;;;;;;17.40;64.80;;;;;;5069479;28;19924;-52
2022/04/18 12:50:51;;;;;;;;;;;17.80;65.60;;;;;;5065422;28;19970;-50
2022/04/18 12:53:18;;;;;;;;;;;17.70;64.90;;;;;;5061330;28;19982;-52
2022/04/18 12:55:45;;;;;;;;;;;17.50;67.20;;;;;;5062074;28;19936;-50
2022/04/18 12:58:19;;;;;;;;;;;17.60;68.20;;;;;;5063802;28;19970;-50
2022/04/18 13:00:49;;;;;;;;;;;18.00;65.30;;;;;;5063688;28;19950;-51
2022/04/18 13:03:16;;;;;;;;;;;18.30;63.60;;;;;;5060824;28;19997;-50
2022/04/18 13:05:45;;;;;;;;;;;18.10;65.70;;;;;;5061771;28;21480;-50
2022/04/18 13:08:13;;;;;;;;;;;17.80;64.60;;;;;;5065748;28;19970;-51
2022/04/18 13:10:40;;;;;;;;;;;17.80;66.90;;;;;;5062198;28;19925;-50
2022/04/18 13:13:08;;;;;;;;;;;17.70;65.80;;;;;;5062086;28;19943;-51
2022/04/18 13:15:34;;;;;;;;;;;17.80;62.90;;;;;;5068297;28;20394;-51
2022/04/18 13:18:04;;;;;;;;;;;17.90;61.50;;;;;;5062712;28;19925;-51
2022/04/18 13:20:32;;;;;;;;;;;17.70;60.80;;;;;;5066119;28;19960;-50
2022/04/18 13:22:59;;;;;;;;;;;17.80;62.80;;;;;;5062550;28;20343;-50
2022/04/18 13:25:26;;;;;;;;;;;18.00;64.30;;;;;;5059531;28;19978;-49
2022/04/18 13:27:53;;;;;;;;;;;17.90;62.30;;;;;;5061440;28;19928;-51
2022/04/18 13:30:21;;;;;;;;;;;17.80;61.10;;;;;;5062489;28;19924;-51
2022/04/18 13:32:47;;;;;;;;;;;18.00;59.70;;;;;;5061834;28;20371;-50
2022/04/18 13:35:17;;;;;;;;;;;17.80;60.60;;;;;;5061997;28;20394;-50
2022/04/18 13:37:44;;;;;;;;;;;18.00;61.80;;;;;;5067595;28;19925;-50
2022/04/18 13:40:11;;;;;;;;;;;18.00;61.80;;;;;;5068922;28;19928;-53
2022/04/18 13:42:38;;;;;;;;;;;17.90;64.00;;;;;;5061282;28;20011;-51
2022/04/18 13:45:08;;;;;;;;;;;17.90;59.90;;;;;;5061125;28;19960;-52
2022/04/18 13:47:35;;;;;;;;;;;17.90;60.00;;;;;;5061791;28;19924;-50
2022/04/18 13:50:02;;;;;;;;;;;17.80;63.10;;;;;;5069960;28;19978;-49
2022/04/18 13:52:30;;;;;;;;;;;17.90;63.40;;;;;;5060993;28;19928;-52
2022/04/18 13:54:57;;;;;;;;;;;17.90;60.80;;;;;;5064060;28;19940;-51
2022/04/18 13:57:24;;;;;;;;;;;17.80;61.20;;;;;;5061298;28;19939;-50
2022/04/18 13:59:51;;;;;;;;;;;17.70;59.30;;;;;;5064501;28;19950;-50
2022/04/18 14:02:18;;;;;;;;;;;17.90;62.10;;;;;;5068840;28;19925;-50
2022/04/18 14:04:45;;;;;;;;;;;17.90;62.30;;;;;;5061353;28;20416;-51
2022/04/18 14:07:12;;;;;;;;;;;17.80;60.70;;;;;;5060366;28;19964;-51
2022/04/18 14:09:42;;;;;;;;;;;17.80;63.70;;;;;;5061909;28;19928;-50
2022/04/18 14:12:09;;;;;;;;;;;17.70;61.10;;;;;;5062406;28;20011;-52
2022/04/18 14:20:23;;;;;;;;;;;17.90;63.00;;;;;;5043912;28;19924;-50
2022/04/18 14:22:50;;;;;;;;;;;17.90;60.00;;;;;;5069836;28;19933;-51
2022/04/18 14:25:18;;;;;;;;;;;17.80;61.50;;;;;;5070524;28;19977;-49
2022/04/18 14:27:45;;;;;;;;;;;17.80;62.20;;;;;;5070362;28;19924;-49
2022/04/18 14:30:13;;;;;;;;;;;18.00;60.50;;;;;;5070905;28;19928;-49
2022/04/18 14:32:40;;;;;;;;;;;17.90;60.50;;;;;;5068816;28;19924;-49
2022/04/18 14:35:08;;;;;;;;;;;17.90;61.10;;;;;;5073847;28;20352;-49
2022/04/18 14:37:35;;;;;;;;;;;17.70;60.60;;;;;;5071002;28;19924;-50
2022/04/18 14:40:01;;;;;;;;;;;17.60;63.20;;;;;;5070032;28;19989;-51
2022/04/18 14:42:30;;;;;;;;;;;17.80;60.00;;;;;;5066573;28;19924;-50
2022/04/18 14:44:56;;;;;;;;;;;17.60;58.40;;;;;;5069932;28;19928;-50
2022/04/18 14:47:24;;;;;;;;;;;17.60;61.30;;;;;;5070581;28;19924;-50
2022/04/18 14:49:54;;;;;;;;;;;17.70;62.50;;;;;;5072791;28;20374;-50
2022/04/18 14:52:22;;;;;;;;;;;17.90;61.10;;;;;;5071009;28;20412;-50
2022/04/18 14:54:49;;;;;;;;;;;17.80;60.70;;;;;;5071120;28;19931;-50
2022/04/18 14:57:17;;;;;;;;;;;17.80;61.30;;;;;;5073997;28;19962;-50
2022/04/18 14:59:46;;;;;;;;;;;17.60;61.70;;;;;;5073363;28;19948;-50